Terminal Aerodrome Forecast
Issued by NWS

Home | Current Version | Previous Version | Text Only | Print | Product List | Glossary On
Versions: 1 2 3 4 5 6 7 8 9 10 11 12 13 14 15 16 17 18 19 20
000
FTUS44 KJAN 281337 AAA
TAFGTR
TAF AMD
KGTR 281337Z 2814/2912 17006KT 4SM BR OVC005
     FM281500 15004KT 5SM BR BKN015
     FM281700 16006KT P6SM SCT040
     FM281900 15008KT P6SM VCTS OVC050CB
     FM290100 14006KT P6SM OVC100
     FM291000 14006KT P6SM OVC015=

USA.gov is the U.S. government's official web portal to all federal, state and local government web resources and services.